Time,TemperatureF,DewpointF,PressureIn,WindDirection,WindDirectionDegrees,WindSpeedMPH,WindSpeedGustMPH,Humidity,HourlyPrecipIn,Conditions,Clouds,dailyrainin,SolarRadiationWatts/m^2,SoftwareType,DateUTC
2013-08-22 00:04:00,70.0,70.0,30.49,ESE,120,1.0,4.0,99,0.00,,,0.00,0.000000,,2013-08-22 04:04:00,
2013-08-22 00:14:00,70.0,70.0,30.49,ESE,120,1.0,4.0,99,0.00,,,0.00,0.000000,,2013-08-22 04:14:00,
2013-08-22 00:54:00,68.0,68.0,30.48,WNW,298,1.0,3.0,99,0.00,,,0.00,0.000000,,2013-08-22 04:54:00,
2013-08-22 01:03:00,68.0,68.0,30.48,WNW,298,1.0,3.0,99,0.00,,,0.00,0.000000,,2013-08-22 05:03:00,
2013-08-22 01:13:00,68.0,68.0,30.48,WNW,298,1.0,3.0,99,0.00,,,0.00,0.000000,,2013-08-22 05:13:00,
2013-08-22 01:43:00,68.0,68.0,30.47,East,79,1.0,3.0,99,0.00,,,0.00,0.000000,,2013-08-22 05:43:00,
2013-08-22 01:53:00,68.0,68.0,30.47,East,79,1.0,3.0,99,0.00,,,0.00,0.000000,,2013-08-22 05:53:00,
2013-08-22 02:02:00,68.0,68.0,30.47,East,79,1.0,3.0,99,0.00,,,0.00,0.000000,,2013-08-22 06:02:00,
2013-08-22 02:12:00,68.0,68.0,30.47,East,79,1.0,3.0,99,0.00,,,0.00,0.000000,,2013-08-22 06:12:00,
2013-08-22 02:42:00,66.0,66.0,30.47,ENE,67,1.0,3.0,99,0.00,,,0.00,0.000000,,2013-08-22 06:42:00,
2013-08-22 02:52:00,66.0,66.0,30.47,ENE,67,1.0,3.0,99,0.00,,,0.00,0.000000,,2013-08-22 06:52:00,
2013-08-22 03:02:00,66.0,66.0,30.47,ENE,67,1.0,3.0,99,0.00,,,0.00,0.000000,,2013-08-22 07:02:00,
2013-08-22 03:12:00,66.0,66.0,30.47,ENE,67,1.0,3.0,99,0.00,,,0.00,0.000000,,2013-08-22 07:12:00,
2013-08-22 03:42:00,64.0,64.0,30.47,East,101,1.0,3.0,99,0.00,,,-99.99,0.000000,,2013-08-22 07:42:00,
2013-08-22 03:53:00,64.0,64.0,30.47,East,101,1.0,3.0,99,0.00,,,-99.99,0.000000,,2013-08-22 07:53:00,
2013-08-22 04:03:00,64.0,64.0,30.47,East,101,1.0,3.0,99,0.00,,,-99.99,0.000000,,2013-08-22 08:03:00,
2013-08-22 04:12:00,64.0,64.0,30.47,East,101,1.0,3.0,99,0.00,,,-99.99,0.000000,,2013-08-22 08:12:00,
2013-08-22 04:43:00,63.0,63.0,30.45,SSE,151,1.0,2.0,99,0.00,,,0.00,0.000000,,2013-08-22 08:43:00,
2013-08-22 04:53:00,63.0,63.0,30.45,SSE,151,1.0,2.0,99,0.00,,,0.00,0.000000,,2013-08-22 08:53:00,
2013-08-22 05:01:00,63.0,63.0,30.45,SSE,151,1.0,2.0,99,0.00,,,0.00,0.000000,,2013-08-22 09:01:00,
2013-08-22 05:11:00,63.0,63.0,30.45,SSE,151,1.0,2.0,99,0.00,,,0.00,0.000000,,2013-08-22 09:11:00,
2013-08-22 05:43:00,61.0,61.0,30.46,SSE,152,1.0,2.0,99,0.00,,,0.00,0.000000,,2013-08-22 09:43:00,
2013-08-22 05:54:00,61.0,61.0,30.46,SSE,152,1.0,2.0,99,0.00,,,0.00,0.000000,,2013-08-22 09:54:00,
2013-08-22 06:04:00,61.0,61.0,30.46,SSE,152,1.0,2.0,99,0.00,,,0.00,0.000000,,2013-08-22 10:04:00,
2013-08-22 06:12:00,61.0,61.0,30.46,SSE,152,1.0,2.0,99,0.00,,,0.00,0.000000,,2013-08-22 10:12:00,
2013-08-22 06:17:00,60.0,60.0,30.45,SSE,157,1.0,3.0,99,0.00,,,0.00,0.000000,,2013-08-22 10:17:00,
2013-08-22 06:42:00,60.0,60.0,30.45,SSE,157,1.0,3.0,99,0.00,,,0.00,0.000000,,2013-08-22 10:42:00,
2013-08-22 08:42:00,64.0,64.0,30.47,NW,322,1.0,3.0,99,0.00,,,0.00,23.000000,,2013-08-22 12:42:00,
2013-08-22 08:52:00,64.0,64.0,30.47,NW,322,1.0,3.0,99,0.00,,,0.00,23.000000,,2013-08-22 12:52:00,
2013-08-22 09:02:00,64.0,64.0,30.47,NW,322,1.0,3.0,99,0.00,,,0.00,23.000000,,2013-08-22 13:02:00,
2013-08-22 09:12:00,64.0,64.0,30.47,NW,322,1.0,3.0,99,0.00,,,0.00,23.000000,,2013-08-22 13:12:00,
2013-08-22 09:42:00,73.0,73.0,30.46,NNE,21,1.0,2.0,99,0.00,,,-99.99,234.000000,,2013-08-22 13:42:00,
2013-08-22 09:52:00,73.0,73.0,30.46,NNE,21,1.0,2.0,99,0.00,,,-99.99,234.000000,,2013-08-22 13:52:00,
2013-08-22 10:02:00,73.0,73.0,30.46,NNE,21,1.0,2.0,99,0.00,,,-99.99,234.000000,,2013-08-22 14:02:00,
2013-08-22 10:11:00,73.0,73.0,30.46,NNE,21,1.0,2.0,99,0.00,,,-99.99,234.000000,,2013-08-22 14:11:00,
2013-08-22 12:14:00,87.0,68.0,30.44,SSE,149,3.0,9.0,53,-99.99,,,0.00,681.000000,,2013-08-22 16:14:00,
2013-08-22 13:12:00,90.0,66.0,30.43,SW,225,3.0,10.0,46,0.00,,,0.00,861.000000,,2013-08-22 17:12:00,
2013-08-22 13:43:00,87.0,68.0,30.41,SE,129,2.0,8.0,53,0.00,,,0.00,698.000000,,2013-08-22 17:43:00,
2013-08-22 13:53:00,87.0,68.0,30.41,SE,129,2.0,8.0,53,0.00,,,0.00,698.000000,,2013-08-22 17:53:00,
2013-08-22 14:02:00,87.0,68.0,30.41,SE,129,2.0,8.0,53,0.00,,,0.00,698.000000,,2013-08-22 18:02:00,
2013-08-22 14:12:00,87.0,68.0,30.41,SE,129,2.0,8.0,53,0.00,,,0.00,698.000000,,2013-08-22 18:12:00,
2013-08-22 15:42:00,90.0,71.0,30.36,East,92,1.0,7.0,53,0.00,,,0.00,907.000000,,2013-08-22 19:42:00,
2013-08-22 15:53:00,90.0,71.0,30.36,East,92,1.0,7.0,53,0.00,,,0.00,907.000000,,2013-08-22 19:53:00,
2013-08-22 16:02:00,90.0,71.0,30.36,East,92,1.0,7.0,53,0.00,,,0.00,907.000000,,2013-08-22 20:02:00,
2013-08-22 16:12:00,90.0,71.0,30.36,East,92,1.0,7.0,53,0.00,,,0.00,907.000000,,2013-08-22 20:12:00,
2013-08-22 16:42:00,85.0,75.0,30.34,North,0,2.0,5.0,71,0.00,,,0.00,493.000000,,2013-08-22 20:42:00,
2013-08-22 16:52:00,85.0,75.0,30.34,North,0,2.0,5.0,71,0.00,,,0.00,493.000000,,2013-08-22 20:52:00,
2013-08-22 17:03:00,85.0,75.0,30.34,North,0,2.0,5.0,71,0.00,,,0.00,493.000000,,2013-08-22 21:03:00,
2013-08-22 17:13:00,85.0,75.0,30.34,North,0,2.0,5.0,71,0.00,,,0.00,493.000000,,2013-08-22 21:13:00,
2013-08-22 17:44:00,84.0,74.0,30.33,NNW,338,1.0,4.0,72,0.00,,,0.00,310.000000,,2013-08-22 21:44:00,
2013-08-22 17:54:00,84.0,74.0,30.33,NNW,338,1.0,4.0,72,0.00,,,0.00,310.000000,,2013-08-22 21:54:00,
2013-08-22 18:05:00,84.0,74.0,30.33,NNW,338,1.0,4.0,72,0.00,,,0.00,310.000000,,2013-08-22 22:05:00,
2013-08-22 18:13:00,84.0,74.0,30.33,NNW,338,1.0,4.0,72,0.00,,,0.00,310.000000,,2013-08-22 22:13:00,
2013-08-22 18:42:00,79.0,72.0,30.34,NNE,20,2.0,10.0,79,0.00,,,0.00,160.000000,,2013-08-22 22:42:00,
2013-08-22 18:53:00,79.0,72.0,30.34,NNE,20,2.0,10.0,79,0.00,,,0.00,160.000000,,2013-08-22 22:53:00,
2013-08-22 19:03:00,79.0,72.0,30.34,NNE,20,2.0,10.0,79,0.00,,,0.00,160.000000,,2013-08-22 23:03:00,
2013-08-22 19:12:00,79.0,72.0,30.34,NNE,20,2.0,10.0,79,0.00,,,0.00,160.000000,,2013-08-22 23:12:00,
2013-08-22 19:42:00,79.0,71.0,30.34,NNE,30,1.0,7.0,76,0.00,,,0.00,219.000000,,2013-08-22 23:42:00,
2013-08-22 19:53:00,79.0,71.0,30.34,NNE,30,1.0,7.0,76,0.00,,,0.00,219.000000,,2013-08-22 23:53:00,
2013-08-22 20:02:00,79.0,71.0,30.34,NNE,30,1.0,7.0,76,0.00,,,0.00,219.000000,,2013-08-23 00:02:00,
2013-08-22 20:12:00,79.0,71.0,30.34,NNE,30,1.0,7.0,76,0.00,,,0.00,219.000000,,2013-08-23 00:12:00,
2013-08-22 20:42:00,70.0,68.0,30.36,East,83,1.0,3.0,95,0.00,,,0.00,55.000000,,2013-08-23 00:42:00,
2013-08-22 20:52:00,70.0,68.0,30.36,East,83,1.0,3.0,95,0.00,,,0.00,55.000000,,2013-08-23 00:52:00,
2013-08-22 21:02:00,70.0,68.0,30.36,East,83,1.0,3.0,95,0.00,,,0.00,55.000000,,2013-08-23 01:02:00,
2013-08-22 21:11:00,70.0,68.0,30.36,East,83,1.0,3.0,95,0.00,,,0.00,55.000000,,2013-08-23 01:11:00,
2013-08-22 21:42:00,68.0,67.0,30.38,East,85,1.0,3.0,97,0.00,,,0.00,0.000000,,2013-08-23 01:42:00,
2013-08-22 21:52:00,68.0,67.0,30.38,East,85,1.0,3.0,97,0.00,,,0.00,0.000000,,2013-08-23 01:52:00,
2013-08-22 22:02:00,68.0,67.0,30.38,East,85,1.0,3.0,97,0.00,,,0.00,0.000000,,2013-08-23 02:02:00,
2013-08-22 22:11:00,68.0,67.0,30.38,East,85,1.0,3.0,97,0.00,,,0.00,0.000000,,2013-08-23 02:11:00,
2013-08-22 22:43:00,67.0,66.0,30.40,SSE,158,1.0,2.0,98,0.00,,,0.00,0.000000,,2013-08-23 02:43:00,
2013-08-22 22:52:00,67.0,66.0,30.40,SSE,158,1.0,2.0,98,0.00,,,0.00,0.000000,,2013-08-23 02:52:00,
2013-08-22 23:02:00,67.0,66.0,30.40,SSE,158,1.0,2.0,98,0.00,,,0.00,0.000000,,2013-08-23 03:02:00,
2013-08-22 23:12:00,67.0,66.0,30.40,SSE,158,1.0,2.0,98,0.00,,,0.00,0.000000,,2013-08-23 03:12:00,
2013-08-22 23:55:00,64.0,63.0,30.40,ESE,123,1.0,3.0,98,0.00,,,0.00,0.000000,,2013-08-23 03:55:00,